createdAt,value
2019-02-07T00:02:41.031Z,31.97
2019-02-07T00:05:23.091Z,33.10
2019-02-07T00:08:05.646Z,32.33
2019-02-07T00:10:36.009Z,45.00
2019-02-07T00:13:26.809Z,36.00
2019-02-07T00:16:08.747Z,32.23
2019-02-07T00:18:58.181Z,30.17
2019-02-07T00:21:41.886Z,27.22
2019-02-07T00:24:12.249Z,26.30
2019-02-07T00:27:08.967Z,27.87
2019-02-07T00:32:22.674Z,27.90
2019-02-07T00:38:15.017Z,24.65
2019-02-07T00:40:58.701Z,24.50
2019-02-07T00:43:40.360Z,22.48
2019-02-07T00:46:22.186Z,27.42
2019-02-07T00:49:04.006Z,26.48
2019-02-07T00:51:46.126Z,28.40
2019-02-07T00:54:28.774Z,25.23
2019-02-07T00:57:10.740Z,27.67
2019-02-07T00:59:52.489Z,25.85
2019-02-07T01:02:22.865Z,24.82
2019-02-07T01:05:13.761Z,21.48
2019-02-07T01:07:57.310Z,19.45
2019-02-07T01:10:48.314Z,21.12
2019-02-07T01:13:39.198Z,17.50
2019-02-07T01:16:22.464Z,18.85
2019-02-07T01:19:04.242Z,19.67
2019-02-07T01:21:46.498Z,21.10
2019-02-07T01:24:28.234Z,20.25
2019-02-07T01:27:10.486Z,19.50
2019-02-07T01:29:52.854Z,20.05
2019-02-07T01:32:34.606Z,19.62
2019-02-07T01:35:16.633Z,16.85
2019-02-07T01:37:47.117Z,15.10
2019-02-07T01:40:36.535Z,15.23
2019-02-07T01:43:08.362Z,17.75
2019-02-07T01:45:57.794Z,17.37
2019-02-07T01:48:41.762Z,16.85
2019-02-07T01:51:12.123Z,15.72
2019-02-07T01:54:03.010Z,16.75
2019-02-07T01:56:44.753Z,16.77
2019-02-07T01:59:26.998Z,17.67
2019-02-07T02:02:09.098Z,15.18
2019-02-07T02:04:51.102Z,15.32
2019-02-07T02:07:32.770Z,15.83
2019-02-07T02:10:15.002Z,16.07
2019-02-07T02:12:56.913Z,14.90
2019-02-07T02:15:39.269Z,17.75
2019-02-07T02:18:21.369Z,15.08
2019-02-07T02:21:03.466Z,14.70
2019-02-07T02:23:45.242Z,15.60
2019-02-07T02:26:27.480Z,13.98
2019-02-07T02:29:10.038Z,15.30
2019-02-07T02:31:52.245Z,14.98
2019-02-07T02:34:34.090Z,13.22
2019-02-07T02:37:15.919Z,15.30
2019-02-07T02:39:57.614Z,15.55
2019-02-07T02:42:39.523Z,15.03
2019-02-07T02:45:21.368Z,13.75
2019-02-07T02:48:03.232Z,14.98
2019-02-07T02:50:45.451Z,19.65
2019-02-07T02:53:27.321Z,18.52
2019-02-07T02:56:09.259Z,20.08
2019-02-07T02:58:51.190Z,13.60
2019-02-07T03:04:23.345Z,14.33
2019-02-07T03:07:31.710Z,13.95
2019-02-07T03:10:37.073Z,14.65
2019-02-07T03:13:38.417Z,12.30
2019-02-07T03:16:45.503Z,14.30
2019-02-07T03:19:48.474Z,12.63
2019-02-07T03:22:43.534Z,12.07
2019-02-07T03:25:45.660Z,13.30
2019-02-07T03:28:38.363Z,13.05
2019-02-07T03:31:29.184Z,13.32
2019-02-07T03:34:38.976Z,12.13
2019-02-07T03:37:29.690Z,12.82
2019-02-07T03:40:39.492Z,13.35
2019-02-07T03:43:31.116Z,13.30
2019-02-07T03:46:21.854Z,13.00
2019-02-07T03:49:12.903Z,11.55
2019-02-07T03:52:22.718Z,13.50
2019-02-07T03:55:13.026Z,13.88
2019-02-07T03:58:15.342Z,12.33
2019-02-07T04:01:16.459Z,15.20
2019-02-07T04:04:25.184Z,14.43
2019-02-07T04:07:26.342Z,12.55
2019-02-07T04:10:32.308Z,14.47
2019-02-07T04:13:33.066Z,13.30
2019-02-07T04:16:37.183Z,14.25
2019-02-07T04:19:40.962Z,14.70
2019-02-07T04:22:46.442Z,12.33
2019-02-07T04:25:36.979Z,12.10
2019-02-07T04:28:39.627Z,18.37
2019-02-07T04:31:43.834Z,14.18
2019-02-07T04:34:46.579Z,19.30
2019-02-07T04:37:47.503Z,13.85
2019-02-07T04:40:36.794Z,14.73
2019-02-07T04:43:45.115Z,17.42
2019-02-07T04:46:49.515Z,17.62
2019-02-07T04:49:49.443Z,14.45
2019-02-07T04:52:59.208Z,11.88
2019-02-07T04:56:12.800Z,12.55
2019-02-07T04:59:13.490Z,18.32
2019-02-07T05:02:14.426Z,20.72
2019-02-07T05:04:56.598Z,19.10
2019-02-07T05:07:57.345Z,16.40
2019-02-07T05:11:03.494Z,14.47
2019-02-07T05:14:12.039Z,18.23
2019-02-07T05:17:13.178Z,14.25
2019-02-07T05:20:19.101Z,13.70
2019-02-07T05:26:27.566Z,17.40
2019-02-07T05:29:37.354Z,18.02
2019-02-07T05:32:36.143Z,14.15
2019-02-07T05:35:42.009Z,19.60
2019-02-07T05:38:43.433Z,17.65
2019-02-07T05:41:36.808Z,15.08
2019-02-07T05:44:45.538Z,16.30
2019-02-07T05:47:48.150Z,33.92
2019-02-07T05:50:50.854Z,21.87
2019-02-07T05:53:57.675Z,23.57
2019-02-07T05:56:59.861Z,22.90
2019-02-07T06:00:01.203Z,25.25
2019-02-07T06:03:09.666Z,16.73
2019-02-07T06:05:58.938Z,13.58
2019-02-07T06:09:08.705Z,15.15
2019-02-07T06:12:11.714Z,13.80
2019-02-07T06:15:20.003Z,19.73
2019-02-07T06:18:18.626Z,17.75
2019-02-07T06:21:16.159Z,18.32
2019-02-07T06:24:21.559Z,12.23
2019-02-07T06:27:27.128Z,11.65
2019-02-07T06:30:34.970Z,15.40
2019-02-07T06:33:42.965Z,10.58
2019-02-07T06:36:45.882Z,11.60
2019-02-07T06:39:34.983Z,18.12
2019-02-07T06:42:37.462Z,10.80
2019-02-07T06:45:38.410Z,14.93
2019-02-07T06:48:39.109Z,16.90
2019-02-07T06:51:43.147Z,19.57
2019-02-07T06:54:51.934Z,16.65
2019-02-07T06:57:54.758Z,23.75
2019-02-07T07:00:55.701Z,35.63
2019-02-07T07:03:49.946Z,21.62
2019-02-07T07:07:04.576Z,37.93
2019-02-07T07:10:06.690Z,35.80
2019-02-07T07:13:02.891Z,27.20
2019-02-07T07:16:12.735Z,30.10
2019-02-07T07:19:15.363Z,69.43
2019-02-07T07:22:17.582Z,75.97
2019-02-07T07:25:18.594Z,101.80
2019-02-07T07:28:22.218Z,27.17
2019-02-07T07:31:24.155Z,18.87
2019-02-07T07:34:25.234Z,26.83
2019-02-07T07:37:29.154Z,28.23
2019-02-07T07:40:31.690Z,31.40
2019-02-07T07:43:32.906Z,29.43
2019-02-07T07:46:28.294Z,24.73
2019-02-07T07:49:31.090Z,21.03
2019-02-07T07:52:31.734Z,17.10
2019-02-07T07:55:32.444Z,21.43
2019-02-07T07:58:33.538Z,27.40
2019-02-07T08:01:34.742Z,23.37
2019-02-07T08:04:35.562Z,25.27
2019-02-07T08:07:39.198Z,22.07
2019-02-07T08:10:32.886Z,25.20
2019-02-07T08:13:29.105Z,25.77
2019-02-07T08:16:34.504Z,23.90
2019-02-07T08:19:40.599Z,21.57
2019-02-07T08:22:43.518Z,26.57
2019-02-07T08:25:44.691Z,26.93
2019-02-07T08:28:45.266Z,21.53
2019-02-07T08:31:46.010Z,18.93
2019-02-07T08:34:48.713Z,17.57
2019-02-07T08:37:49.575Z,20.20
2019-02-07T08:40:50.567Z,20.70
2019-02-07T08:43:47.326Z,26.10
2019-02-07T08:49:55.652Z,17.53
2019-02-07T08:52:56.302Z,15.57
2019-02-07T08:55:57.302Z,17.80
2019-02-07T08:58:58.238Z,20.53
2019-02-07T09:02:05.286Z,36.83
2019-02-07T09:05:07.398Z,27.70
2019-02-07T09:08:14.109Z,24.17
2019-02-07T09:11:22.685Z,24.03
2019-02-07T09:14:24.899Z,37.57
2019-02-07T09:17:28.678Z,23.40
2019-02-07T09:20:19.317Z,44.40
2019-02-07T09:23:21.755Z,46.67
2019-02-07T09:26:21.210Z,62.90
2019-02-07T09:29:21.625Z,28.03
2019-02-07T09:32:23.713Z,21.20
2019-02-07T09:35:32.040Z,25.67
2019-02-07T09:38:34.440Z,26.17
2019-02-07T09:41:35.975Z,32.77
2019-02-07T09:44:35.582Z,25.20
2019-02-07T09:47:28.593Z,27.07
2019-02-07T09:50:37.561Z,36.03
2019-02-07T09:53:43.222Z,31.50
2019-02-07T09:56:46.501Z,25.90
2019-02-07T09:59:48.821Z,46.97
2019-02-07T10:02:50.151Z,37.20
2019-02-07T10:05:39.181Z,26.80
2019-02-07T10:08:41.647Z,44.13
2019-02-07T10:11:45.657Z,45.10
2019-02-07T10:14:48.091Z,19.83
2019-02-07T10:17:56.403Z,26.83
2019-02-07T10:20:59.010Z,24.57
2019-02-07T10:23:53.512Z,16.40
2019-02-07T10:26:49.491Z,14.77
2019-02-07T10:29:52.834Z,13.37
2019-02-07T10:32:49.173Z,13.93
2019-02-07T10:35:59.222Z,15.03
2019-02-07T10:39:05.398Z,10.40
2019-02-07T10:42:00.815Z,11.37
2019-02-07T10:45:03.324Z,13.20
2019-02-07T10:47:59.522Z,11.10
2019-02-07T10:51:02.108Z,10.10
2019-02-07T10:54:03.574Z,10.57
2019-02-07T10:57:04.558Z,9.00
2019-02-07T11:00:05.398Z,11.33
2019-02-07T11:03:03.205Z,12.67
2019-02-07T11:06:06.026Z,10.27
2019-02-07T11:09:07.059Z,8.63
2019-02-07T11:12:08.102Z,9.30
2019-02-07T11:15:09.253Z,9.07
2019-02-07T11:18:12.008Z,10.00
2019-02-07T11:21:15.995Z,8.67
2019-02-07T11:24:21.362Z,8.70
2019-02-07T11:27:24.050Z,9.93
2019-02-07T11:30:30.798Z,9.77
2019-02-07T11:33:27.366Z,8.40
2019-02-07T11:36:29.527Z,10.57
2019-02-07T11:39:30.516Z,7.33
2019-02-07T11:42:32.714Z,9.30
2019-02-07T11:45:30.417Z,8.93
2019-02-07T11:48:36.430Z,11.70
2019-02-07T11:51:45.323Z,10.87
2019-02-07T11:54:43.494Z,13.47
2019-02-07T11:57:37.550Z,9.60
2019-02-07T12:00:43.521Z,11.03
2019-02-07T12:03:46.406Z,8.23
2019-02-07T12:06:49.449Z,9.17
2019-02-07T12:09:56.089Z,9.13
2019-02-07T12:12:46.795Z,7.93
2019-02-07T12:15:44.541Z,7.70
2019-02-07T12:18:52.662Z,7.10
2019-02-07T12:21:54.133Z,8.27
2019-02-07T12:24:57.795Z,8.07
2019-02-07T12:27:59.111Z,8.53
2019-02-07T12:31:01.306Z,9.47
2019-02-07T12:33:57.011Z,11.50
2019-02-07T12:36:59.114Z,9.27
2019-02-07T12:40:00.312Z,9.00
2019-02-07T12:43:03.862Z,11.47
2019-02-07T12:49:16.007Z,12.27
2019-02-07T12:52:17.797Z,16.73
2019-02-07T12:55:26.870Z,13.07
2019-02-07T12:58:34.046Z,14.70
2019-02-07T13:01:35.106Z,20.57
2019-02-07T13:04:36.039Z,13.53
2019-02-07T13:07:37.003Z,13.03
2019-02-07T13:10:40.638Z,15.20
2019-02-07T13:13:43.530Z,15.73
2019-02-07T13:16:49.117Z,14.90
2019-02-07T13:19:51.175Z,16.03
2019-02-07T13:22:53.230Z,14.23
2019-02-07T13:25:45.718Z,14.33
2019-02-07T13:28:57.045Z,14.73
2019-02-07T13:31:59.569Z,15.57
2019-02-07T13:35:00.577Z,12.47
2019-02-07T13:38:04.273Z,16.13
2019-02-07T13:41:12.498Z,15.27
2019-02-07T13:44:15.208Z,12.97
2019-02-07T13:47:16.187Z,14.47
2019-02-07T13:50:07.306Z,14.37
2019-02-07T13:53:13.229Z,14.80
2019-02-07T13:56:21.846Z,14.83
2019-02-07T13:59:22.919Z,15.77
2019-02-07T14:02:23.595Z,17.77
2019-02-07T14:05:25.354Z,14.93
2019-02-07T14:08:37.860Z,15.90
2019-02-07T14:11:29.513Z,13.40
2019-02-07T14:14:33.453Z,15.13
2019-02-07T14:17:35.638Z,19.53
2019-02-07T14:20:41.614Z,18.53
2019-02-07T14:23:49.962Z,16.67
2019-02-07T14:26:52.290Z,16.33
2019-02-07T14:29:52.871Z,14.87
2019-02-07T14:32:53.870Z,20.50
2019-02-07T14:35:53.365Z,17.87
2019-02-07T14:38:55.879Z,18.50
2019-02-07T14:41:56.962Z,16.87
2019-02-07T14:45:00.619Z,15.47
2019-02-07T14:47:43.925Z,21.07
2019-02-07T14:50:26.242Z,18.13
2019-02-07T14:53:08.600Z,17.37
2019-02-07T14:55:51.040Z,17.50
2019-02-07T14:58:32.703Z,23.47
2019-02-07T15:01:15.189Z,15.33
2019-02-07T15:03:57.122Z,17.60
2019-02-07T15:06:39.117Z,15.63
2019-02-07T15:09:21.494Z,18.57
2019-02-07T15:12:03.686Z,16.67
2019-02-07T15:14:45.802Z,17.43
2019-02-07T15:17:27.919Z,22.10
2019-02-07T15:20:10.186Z,22.53
2019-02-07T15:22:52.102Z,23.13
2019-02-07T15:25:34.415Z,23.37
2019-02-07T15:28:16.285Z,21.43
2019-02-07T15:30:57.938Z,22.57
2019-02-07T15:33:40.214Z,20.53
2019-02-07T15:36:22.526Z,17.33
2019-02-07T15:39:04.982Z,72.40
2019-02-07T15:41:46.958Z,118.20
2019-02-07T15:44:29.166Z,43.17
2019-02-07T15:47:11.322Z,20.10
2019-02-07T15:49:53.538Z,36.07
2019-02-07T15:52:35.553Z,31.70
2019-02-07T15:55:17.390Z,55.87
2019-02-07T15:57:59.530Z,23.60
2019-02-07T16:00:48.923Z,18.67
2019-02-07T16:03:58.954Z,19.10
2019-02-07T16:06:41.729Z,21.07
2019-02-07T16:09:24.019Z,17.73
2019-02-07T16:12:06.098Z,19.40
2019-02-07T16:14:47.777Z,20.33
2019-02-07T16:17:30.202Z,24.97
2019-02-07T16:20:12.422Z,17.77
2019-02-07T16:22:54.686Z,24.60
2019-02-07T16:25:36.547Z,27.50
2019-02-07T16:28:20.383Z,19.77
2019-02-07T16:31:01.931Z,22.97
2019-02-07T16:33:43.826Z,28.20
2019-02-07T16:36:25.669Z,31.10
2019-02-07T16:39:07.552Z,29.10
2019-02-07T16:41:49.427Z,25.83
2019-02-07T16:44:31.742Z,30.40
2019-02-07T16:47:13.794Z,76.70
2019-02-07T16:49:55.846Z,64.00
2019-02-07T16:52:37.909Z,84.90
2019-02-07T16:55:19.851Z,55.67
2019-02-07T16:58:01.803Z,32.77
2019-02-07T17:00:43.686Z,34.43
2019-02-07T17:03:25.941Z,153.17
2019-02-07T17:06:07.718Z,66.53
2019-02-07T17:08:49.648Z,113.93
2019-02-07T17:11:31.394Z,82.53
2019-02-07T17:14:13.538Z,50.90
2019-02-07T17:16:57.246Z,66.77
2019-02-07T17:19:39.083Z,205.43
2019-02-07T17:22:21.162Z,76.57
2019-02-07T17:25:03.011Z,37.63
2019-02-07T17:27:45.161Z,44.53
2019-02-07T17:30:27.532Z,48.20
2019-02-07T17:33:10.078Z,53.57
2019-02-07T17:35:51.876Z,52.23
2019-02-07T17:38:33.724Z,45.53
2019-02-07T17:41:15.934Z,41.20
2019-02-07T17:43:58.094Z,52.37
2019-02-07T17:46:39.740Z,46.07
2019-02-07T17:49:22.147Z,47.00
2019-02-07T17:52:03.928Z,39.10
2019-02-07T17:54:45.815Z,37.67
2019-02-07T17:57:28.018Z,38.47
2019-02-07T18:00:11.990Z,35.50
2019-02-07T18:02:53.718Z,37.20
2019-02-07T18:05:35.665Z,37.83
2019-02-07T18:08:18.243Z,33.83
2019-02-07T18:11:00.983Z,33.13
2019-02-07T18:13:42.773Z,35.37
2019-02-07T18:16:24.949Z,33.80
2019-02-07T18:19:07.723Z,33.53
2019-02-07T18:21:49.667Z,35.47
2019-02-07T18:24:31.546Z,29.83
2019-02-07T18:27:13.461Z,33.33
2019-02-07T18:29:55.266Z,31.73
2019-02-07T18:32:37.262Z,35.97
2019-02-07T18:35:19.038Z,35.00
2019-02-07T18:38:01.222Z,33.57
2019-02-07T18:40:43.057Z,99.73
2019-02-07T18:43:25.450Z,85.10
2019-02-07T18:46:07.611Z,45.87
2019-02-07T18:48:49.710Z,97.30
2019-02-07T18:51:31.834Z,119.77
2019-02-07T18:54:13.702Z,118.47
2019-02-07T18:56:55.524Z,59.57
2019-02-07T18:59:37.454Z,54.27
2019-02-07T19:02:19.206Z,51.17
2019-02-07T19:05:01.308Z,52.83
2019-02-07T19:07:43.338Z,55.97
2019-02-07T19:10:25.539Z,49.07
2019-02-07T19:13:09.777Z,43.40
2019-02-07T19:15:51.561Z,42.27
2019-02-07T19:18:33.367Z,40.83
2019-02-07T19:21:15.458Z,46.03
2019-02-07T19:23:57.438Z,44.50
2019-02-07T19:26:39.311Z,41.00
2019-02-07T19:29:21.627Z,51.53
2019-02-07T19:32:03.705Z,64.83
2019-02-07T19:34:45.812Z,56.07
2019-02-07T19:37:26.473Z,58.80
2019-02-07T19:40:15.886Z,51.47
2019-02-07T19:42:59.349Z,70.00
2019-02-07T19:45:41.598Z,63.43
2019-02-07T19:48:23.650Z,46.03
2019-02-07T19:51:05.767Z,41.97
2019-02-07T19:53:47.831Z,90.87
2019-02-07T19:56:29.962Z,93.17
2019-02-07T19:59:12.038Z,63.93
2019-02-07T20:01:54.218Z,46.30
2019-02-07T20:04:36.226Z,37.23
2019-02-07T20:07:18.326Z,39.23
2019-02-07T20:10:00.378Z,35.40
2019-02-07T20:12:42.586Z,39.63
2019-02-07T20:15:25.815Z,47.77
2019-02-07T20:18:08.044Z,47.57
2019-02-07T20:20:50.278Z,38.77
2019-02-07T20:23:33.026Z,38.30
2019-02-07T20:26:15.220Z,38.77
2019-02-07T20:28:57.370Z,222.37
2019-02-07T20:31:39.839Z,202.13
2019-02-07T20:34:21.666Z,99.33
2019-02-07T20:37:03.728Z,86.73
2019-02-07T20:39:46.219Z,69.90
2019-02-07T20:42:28.321Z,48.13
2019-02-07T20:45:10.254Z,45.60
2019-02-07T20:47:52.322Z,40.77
2019-02-07T20:50:34.418Z,35.87
2019-02-07T20:53:17.909Z,36.33
2019-02-07T20:56:00.344Z,63.83
2019-02-07T20:58:42.571Z,115.50
2019-02-07T21:01:23.010Z,47.83
2019-02-07T21:04:12.738Z,49.67
2019-02-07T21:06:56.741Z,46.27
2019-02-07T21:09:38.966Z,66.63
2019-02-07T21:12:21.543Z,53.87
2019-02-07T21:15:03.689Z,45.77
2019-02-07T21:17:45.892Z,40.20
2019-02-07T21:20:28.150Z,42.57
2019-02-07T21:23:10.792Z,43.10
2019-02-07T21:25:52.829Z,36.60
2019-02-07T21:28:34.750Z,40.80
2019-02-07T21:31:17.038Z,40.50
2019-02-07T21:33:59.090Z,44.60
2019-02-07T21:36:41.447Z,42.37
2019-02-07T21:39:23.438Z,46.40
2019-02-07T21:42:05.590Z,42.63
2019-02-07T21:44:47.690Z,38.43
2019-02-07T21:47:30.178Z,37.17
2019-02-07T21:50:13.909Z,39.87
2019-02-07T21:52:56.395Z,48.20
2019-02-07T21:55:38.685Z,41.67
2019-02-07T21:58:20.904Z,39.53
2019-02-07T22:01:04.344Z,37.30
2019-02-07T22:03:46.888Z,34.50
2019-02-07T22:06:30.042Z,40.70
2019-02-07T22:09:12.502Z,36.60
2019-02-07T22:11:54.564Z,37.03
2019-02-07T22:14:37.312Z,36.03
2019-02-07T22:17:19.280Z,37.53
2019-02-07T22:20:01.572Z,36.47
2019-02-07T22:22:49.164Z,36.13
2019-02-07T22:25:27.165Z,35.40
2019-02-07T22:28:09.098Z,37.10
2019-02-07T22:30:51.199Z,34.27
2019-02-07T22:33:21.582Z,37.47
2019-02-07T22:36:12.475Z,38.43
2019-02-07T22:38:56.330Z,35.77
2019-02-07T22:41:38.278Z,33.23
2019-02-07T22:44:20.763Z,32.03
2019-02-07T22:47:02.509Z,34.83
2019-02-07T22:49:44.333Z,34.87
2019-02-07T22:52:25.996Z,34.23
2019-02-07T22:55:07.901Z,41.53
2019-02-07T22:57:49.521Z,40.30
2019-02-07T23:00:31.518Z,37.83
2019-02-07T23:03:13.675Z,35.97
2019-02-07T23:05:56.102Z,45.73
2019-02-07T23:08:38.273Z,42.40
2019-02-07T23:11:20.494Z,40.37
2019-02-07T23:14:02.747Z,42.67
2019-02-07T23:16:44.762Z,40.83
2019-02-07T23:19:27.533Z,36.07
2019-02-07T23:22:09.950Z,38.00
2019-02-07T23:24:51.760Z,37.53
2019-02-07T23:27:34.183Z,39.67
2019-02-07T23:30:16.138Z,40.27
2019-02-07T23:32:58.234Z,43.53
2019-02-07T23:35:40.474Z,41.90
2019-02-07T23:38:22.337Z,42.47
2019-02-07T23:41:04.582Z,37.50
2019-02-07T23:43:47.113Z,37.17
2019-02-07T23:46:29.053Z,36.53
2019-02-07T23:49:11.227Z,36.53
2019-02-07T23:51:52.969Z,30.40
2019-02-07T23:54:34.849Z,36.40
2019-02-07T23:57:16.681Z,35.03
2019-02-07T23:59:58.760Z,31.63
